Flag for Germany

Past Weather in Herrsching am Ammersee, Bavaria, Germany — Yesterday and Last 2 Weeks

Currently: 59 °F. Light rain. Clear. (Weather station: Oberpfaffenhofen, Germany). See more current weather

Past Weather in Herrsching am Ammersee — Graph

°F

Herrsching am Ammersee Temperature Yesterday

Maximum temperature yesterday: 68 °F (at 2:20 pm)
Minimum temperature yesterday: 54 °F (at 12:50 am)
Average temperature yesterday: 60 °F

High & Low Weather Summary for the Past Weeks

 TemperatureHumidityPressure
High81 °F (Jul 23, 3:50 pm)100% (Jul 19, 11:20 pm)30.18 "Hg (Jul 19, 11:20 pm)
Low50 °F (Jul 21, 3:50 am)34% (Jul 23, 6:20 pm)29.77 "Hg (Aug 1, 3:50 am)
Average65 °F79%30.00 "Hg
* Reported Jul 19 6:50 pm — Aug 3 6:50 pm, Herrsching am Ammersee. Weather by CustomWeather, © 2021

Note: Actual official high and low records may vary slightly from our data, if they occured in-between our weather recording intervals... More about our weather records

Herrsching am Ammersee Weather History for the Previous 24 Hours

Scroll right to see more
 ConditionsComfort  
Time TempWeatherWind HumidityBarometerVisibility
6:50 pm
Tue, Aug 3
59 °FLight rain. Scattered clouds.5 mph88%29.98 "HgN/A
6:20 pm59 °FLight rain. Partly sunny.10 mph82%30.01 "HgN/A
5:50 pm63 °FLight rain. Partly sunny.14 mph73%29.98 "HgN/A
5:20 pm64 °FScattered clouds.9 mph68%29.98 "HgN/A
4:50 pm64 °FScattered clouds.14 mph68%29.98 "HgN/A
4:20 pm70 °FPassing clouds.6 mph50%29.95 "HgN/A
3:50 pm72 °FScattered clouds.5 mph53%29.95 "HgN/A
3:20 pm70 °FScattered clouds.3 mph50%29.95 "HgN/A
2:50 pm70 °FScattered clouds.7 mph46%29.95 "HgN/A
2:20 pm70 °FPassing clouds.6 mph53%29.98 "HgN/A
1:50 pm70 °FSunny.5 mph50%29.98 "Hg10 mi
1:20 pm70 °FPassing clouds.5 mph57%29.98 "HgN/A
12:50 pm68 °FPassing clouds.6 mph60%30.01 "HgN/A
12:20 pm68 °FSunny.6 mph53%30.01 "Hg10 mi
11:50 am68 °FPassing clouds.5 mph60%30.01 "HgN/A
11:20 am70 °FSunny.1 mph60%30.01 "Hg10 mi
10:50 am70 °FSunny.2 mph60%30.01 "Hg10 mi
10:20 am66 °FSunny.2 mph60%30.01 "Hg10 mi
9:50 am66 °FSunny.2 mph56%30.01 "Hg10 mi
9:20 am64 °FPassing clouds.3 mph68%30.01 "HgN/A
8:50 am63 °FPassing clouds.3 mph73%30.01 "HgN/A
8:20 am61 °FSunny.2 mph77%30.01 "Hg10 mi
7:50 am59 °FSunny.6 mph82%30.01 "Hg10 mi
7:20 am55 °FSunny.3 mph94%30.01 "Hg10 mi
6:50 am54 °FSunny.3 mph88%30.01 "Hg10 mi
6:20 am52 °FScattered clouds.5 mph88%30.01 "HgN/A
5:50 am52 °FPassing clouds.5 mph94%30.04 "HgN/A
5:20 am52 °FOvercast.5 mph94%30.04 "HgN/A
4:50 am50 °FPassing clouds.6 mph94%30.04 "HgN/A
4:20 am50 °FPassing clouds.3 mph100%30.04 "HgN/A
3:50 am52 °FPassing clouds.5 mph94%30.04 "HgN/A
3:20 am54 °FPartly cloudy.2 mph94%30.04 "HgN/A
2:50 am52 °FPassing clouds.6 mph94%30.04 "HgN/A
2:20 am52 °FPassing clouds.3 mph94%30.04 "HgN/A
1:50 am52 °FPassing clouds.5 mph100%30.07 "HgN/A
1:20 am54 °FPassing clouds.5 mph94%30.07 "HgN/A
12:50 am52 °FClear.5 mph94%30.07 "HgN/A
12:20 am55 °FClear.3 mph88%30.07 "HgN/A
11:50 pm
Mon, Aug 2
55 °FPartly cloudy.5 mph94%30.07 "HgN/A
11:20 pm55 °FPassing clouds.5 mph88%30.04 "HgN/A
10:50 pm59 °FPartly cloudy.5 mph77%30.07 "HgN/A
10:20 pm59 °FPassing clouds.6 mph77%30.04 "HgN/A
9:50 pm57 °FClear.2 mph94%30.04 "HgN/A
9:20 pm59 °FPassing clouds.2 mph88%30.04 "HgN/A
8:50 pm61 °FPartly cloudy.3 mph83%30.01 "HgN/A
8:20 pm64 °FPassing clouds.3 mph68%30.01 "HgN/A
Weather by CustomWeather, © 2021

See weather overview